sensor_id;sensor_type;location;lat;lon;timestamp;pressure;altitude;pressure_sealevel;temperature;humidity
80321;BME280;69633;47.066;15.450;2023-04-24T00:02:02;96589.63;;;11.76;77.63
80321;BME280;69633;47.066;15.450;2023-04-24T00:04:29;96579.50;;;11.62;77.95
80321;BME280;69633;47.066;15.450;2023-04-24T00:06:55;96582.09;;;11.59;78.28
80321;BME280;69633;47.066;15.450;2023-04-24T00:09:22;96566.84;;;11.52;78.19
80321;BME280;69633;47.066;15.450;2023-04-24T00:11:48;96574.41;;;11.50;78.26
80321;BME280;69633;47.066;15.450;2023-04-24T00:14:13;96563.72;;;11.47;78.90
80321;BME280;69633;47.066;15.450;2023-04-24T00:16:39;96569.75;;;11.44;79.02
80321;BME280;69633;47.066;15.450;2023-04-24T00:19:04;96565.56;;;11.43;78.81
80321;BME280;69633;47.066;15.450;2023-04-24T00:21:31;96568.13;;;11.36;78.72
80321;BME280;69633;47.066;15.450;2023-04-24T00:23:58;96559.72;;;11.34;78.65
80321;BME280;69633;47.066;15.450;2023-04-24T00:26:23;96554.06;;;11.35;78.83
80321;BME280;69633;47.066;15.450;2023-04-24T00:28:49;96557.78;;;11.31;78.60
80321;BME280;69633;47.066;15.450;2023-04-24T00:31:14;96558.56;;;11.31;79.06
80321;BME280;69633;47.066;15.450;2023-04-24T00:33:40;96554.38;;;11.30;78.64
80321;BME280;69633;47.066;15.450;2023-04-24T00:36:06;96555.13;;;11.31;78.95
80321;BME280;69633;47.066;15.450;2023-04-24T00:38:32;96560.16;;;11.36;78.86
80321;BME280;69633;47.066;15.450;2023-04-24T00:40:57;96559.06;;;11.40;77.90
80321;BME280;69633;47.066;15.450;2023-04-24T00:43:23;96561.06;;;11.47;78.00
80321;BME280;69633;47.066;15.450;2023-04-24T00:45:48;96550.75;;;11.42;77.95
80321;BME280;69633;47.066;15.450;2023-04-24T00:48:14;96553.78;;;11.44;77.90
80321;BME280;69633;47.066;15.450;2023-04-24T00:50:40;96550.69;;;11.38;77.86
80321;BME280;69633;47.066;15.450;2023-04-24T00:53:05;96552.88;;;11.33;77.18
80321;BME280;69633;47.066;15.450;2023-04-24T00:55:31;96551.34;;;11.32;77.33
80321;BME280;69633;47.066;15.450;2023-04-24T00:57:57;96552.97;;;11.40;77.19
80321;BME280;69633;47.066;15.450;2023-04-24T01:00:23;96551.84;;;11.41;77.58
80321;BME280;69633;47.066;15.450;2023-04-24T01:02:49;96547.25;;;11.38;76.92
80321;BME280;69633;47.066;15.450;2023-04-24T01:05:17;96545.22;;;11.28;77.48
80321;BME280;69633;47.066;15.450;2023-04-24T01:07:43;96546.63;;;11.22;77.62
80321;BME280;69633;47.066;15.450;2023-04-24T01:10:11;96545.69;;;11.10;77.61
80321;BME280;69633;47.066;15.450;2023-04-24T01:12:38;96543.41;;;11.09;78.09
80321;BME280;69633;47.066;15.450;2023-04-24T01:15:04;96537.94;;;10.98;77.90
80321;BME280;69633;47.066;15.450;2023-04-24T01:17:30;96544.81;;;11.03;78.07
80321;BME280;69633;47.066;15.450;2023-04-24T01:19:56;96548.34;;;11.10;78.21
80321;BME280;69633;47.066;15.450;2023-04-24T01:22:22;96545.69;;;11.10;77.93
80321;BME280;69633;47.066;15.450;2023-04-24T01:24:48;96541.94;;;11.11;78.13
80321;BME280;69633;47.066;15.450;2023-04-24T01:27:14;96547.25;;;11.11;78.31
80321;BME280;69633;47.066;15.450;2023-04-24T01:29:40;96537.34;;;11.08;78.01
80321;BME280;69633;47.066;15.450;2023-04-24T01:32:05;96537.28;;;11.05;78.06
80321;BME280;69633;47.066;15.450;2023-04-24T01:34:31;96542.53;;;11.01;78.89
80321;BME280;69633;47.066;15.450;2023-04-24T01:36:57;96537.56;;;11.00;78.19
80321;BME280;69633;47.066;15.450;2023-04-24T01:39:22;96535.28;;;10.98;78.35
80321;BME280;69633;47.066;15.450;2023-04-24T01:41:53;96537.22;;;11.01;78.54
80321;BME280;69633;47.066;15.450;2023-04-24T01:44:20;96536.22;;;11.09;77.61
80321;BME280;69633;47.066;15.450;2023-04-24T01:46:46;96531.03;;;11.17;77.69
80321;BME280;69633;47.066;15.450;2023-04-24T01:49:11;96529.94;;;11.21;77.41
80321;BME280;69633;47.066;15.450;2023-04-24T01:51:37;96526.09;;;11.19;76.94
80321;BME280;69633;47.066;15.450;2023-04-24T01:54:03;96529.13;;;11.17;77.55
80321;BME280;69633;47.066;15.450;2023-04-24T01:56:29;96528.84;;;11.26;77.30
80321;BME280;69633;47.066;15.450;2023-04-24T01:58:56;96523.88;;;11.21;76.55
80321;BME280;69633;47.066;15.450;2023-04-24T02:01:23;96526.00;;;11.11;76.58
80321;BME280;69633;47.066;15.450;2023-04-24T02:03:50;96529.66;;;11.03;76.71
80321;BME280;69633;47.066;15.450;2023-04-24T02:06:15;96530.03;;;11.02;76.65
80321;BME280;69633;47.066;15.450;2023-04-24T02:08:41;96513.72;;;11.03;76.97
80321;BME280;69633;47.066;15.450;2023-04-24T02:11:08;96510.34;;;11.06;76.56
80321;BME280;69633;47.066;15.450;2023-04-24T02:13:34;96514.59;;;11.11;76.57
80321;BME280;69633;47.066;15.450;2023-04-24T02:15:59;96500.66;;;11.18;76.02
80321;BME280;69633;47.066;15.450;2023-04-24T02:18:25;96500.97;;;11.12;76.47
80321;BME280;69633;47.066;15.450;2023-04-24T02:20:50;96511.72;;;11.20;76.79
80321;BME280;69633;47.066;15.450;2023-04-24T02:23:15;96502.00;;;11.31;76.17
80321;BME280;69633;47.066;15.450;2023-04-24T02:25:41;96511.56;;;11.35;75.66
80321;BME280;69633;47.066;15.450;2023-04-24T02:28:06;96498.06;;;11.21;76.58
80321;BME280;69633;47.066;15.450;2023-04-24T02:30:32;96500.97;;;11.12;77.01
80321;BME280;69633;47.066;15.450;2023-04-24T02:32:57;96494.84;;;11.08;76.92
80321;BME280;69633;47.066;15.450;2023-04-24T02:35:23;96493.91;;;10.97;76.77
80321;BME280;69633;47.066;15.450;2023-04-24T02:37:48;96493.09;;;10.93;77.57
80321;BME280;69633;47.066;15.450;2023-04-24T02:40:13;96494.50;;;10.87;77.37
80321;BME280;69633;47.066;15.450;2023-04-24T02:42:39;96488.06;;;10.88;77.38
80321;BME280;69633;47.066;15.450;2023-04-24T02:45:05;96489.19;;;10.87;77.83
80321;BME280;69633;47.066;15.450;2023-04-24T02:47:31;96488.50;;;10.90;77.37
80321;BME280;69633;47.066;15.450;2023-04-24T02:49:56;96491.56;;;10.92;77.75
80321;BME280;69633;47.066;15.450;2023-04-24T02:52:22;96493.09;;;10.93;77.44
80321;BME280;69633;47.066;15.450;2023-04-24T02:54:47;96484.03;;;10.94;77.54
80321;BME280;69633;47.066;15.450;2023-04-24T02:57:13;96490.06;;;10.95;77.41
80321;BME280;69633;47.066;15.450;2023-04-24T02:59:38;96485.28;;;11.04;77.46
80321;BME280;69633;47.066;15.450;2023-04-24T03:02:04;96481.09;;;11.03;76.86
80321;BME280;69633;47.066;15.450;2023-04-24T03:04:29;96480.66;;;10.97;77.15
80321;BME280;69633;47.066;15.450;2023-04-24T03:06:55;96487.78;;;10.93;77.78
80321;BME280;69633;47.066;15.450;2023-04-24T03:09:21;96475.53;;;10.85;77.55
80321;BME280;69633;47.066;15.450;2023-04-24T03:11:46;96478.41;;;10.77;77.64
80321;BME280;69633;47.066;15.450;2023-04-24T03:14:12;96469.34;;;10.78;77.95
80321;BME280;69633;47.066;15.450;2023-04-24T03:16:37;96469.28;;;10.74;77.92
80321;BME280;69633;47.066;15.450;2023-04-24T03:19:03;96468.44;;;10.70;77.42
80321;BME280;69633;47.066;15.450;2023-04-24T03:21:28;96475.31;;;10.71;78.09
80321;BME280;69633;47.066;15.450;2023-04-24T03:23:54;96479.84;;;10.71;78.20
80321;BME280;69633;47.066;15.450;2023-04-24T03:26:20;96480.59;;;10.71;77.83
80321;BME280;69633;47.066;15.450;2023-04-24T03:28:45;96481.44;;;10.75;77.86
80321;BME280;69633;47.066;15.450;2023-04-24T03:31:10;96481.44;;;10.75;77.94
80321;BME280;69633;47.066;15.450;2023-04-24T03:33:36;96492.06;;;10.75;77.55
80321;BME280;69633;47.066;15.450;2023-04-24T03:36:02;96490.47;;;10.71;77.75
80321;BME280;69633;47.066;15.450;2023-04-24T03:38:27;96485.91;;;10.71;77.84
80321;BME280;69633;47.066;15.450;2023-04-24T03:40:53;96490.56;;;10.78;77.29
80321;BME280;69633;47.066;15.450;2023-04-24T03:43:18;96498.25;;;10.83;77.05
80321;BME280;69633;47.066;15.450;2023-04-24T03:45:44;96498.88;;;10.76;77.15
80321;BME280;69633;47.066;15.450;2023-04-24T03:48:09;96501.25;;;10.81;77.26
80321;BME280;69633;47.066;15.450;2023-04-24T03:50:35;96507.38;;;10.85;76.93
80321;BME280;69633;47.066;15.450;2023-04-24T03:53:00;96498.47;;;10.74;77.41
80321;BME280;69633;47.066;15.450;2023-04-24T03:55:26;96504.13;;;10.73;76.55
80321;BME280;69633;47.066;15.450;2023-04-24T03:57:51;96496.53;;;10.71;77.01
80321;BME280;69633;47.066;15.450;2023-04-24T04:00:17;96501.94;;;10.78;76.27
80321;BME280;69633;47.066;15.450;2023-04-24T04:02:43;96496.03;;;10.88;75.95
80321;BME280;69633;47.066;15.450;2023-04-24T04:05:09;96504.84;;;10.92;75.45
80321;BME280;69633;47.066;15.450;2023-04-24T04:07:34;96501.41;;;10.92;75.17
80321;BME280;69633;47.066;15.450;2023-04-24T04:10:00;96501.25;;;10.81;75.83
80321;BME280;69633;47.066;15.450;2023-04-24T04:12:25;96506.44;;;10.74;76.20
80321;BME280;69633;47.066;15.450;2023-04-24T04:14:50;96508.38;;;10.77;76.60
80321;BME280;69633;47.066;15.450;2023-04-24T04:17:16;96520.38;;;10.90;75.95
80321;BME280;69633;47.066;15.450;2023-04-24T04:19:41;96508.38;;;11.00;75.15
80321;BME280;69633;47.066;15.450;2023-04-24T04:22:07;96519.69;;;10.97;75.20
80321;BME280;69633;47.066;15.450;2023-04-24T04:24:33;96514.94;;;10.83;76.08
80321;BME280;69633;47.066;15.450;2023-04-24T04:27:03;96514.22;;;10.86;75.85
80321;BME280;69633;47.066;15.450;2023-04-24T04:29:30;96529.25;;;11.01;75.18
80321;BME280;69633;47.066;15.450;2023-04-24T04:31:56;96518.22;;;10.99;75.26
80321;BME280;69633;47.066;15.450;2023-04-24T04:34:22;96521.59;;;10.96;75.69
80321;BME280;69633;47.066;15.450;2023-04-24T04:36:48;96521.47;;;10.89;75.78
80321;BME280;69633;47.066;15.450;2023-04-24T04:39:13;96518.16;;;10.96;75.44
80321;BME280;69633;47.066;15.450;2023-04-24T04:41:40;96518.63;;;11.01;75.39
80321;BME280;69633;47.066;15.450;2023-04-24T04:44:06;96517.09;;;11.00;75.40
80321;BME280;69633;47.066;15.450;2023-04-24T04:46:34;96520.53;;;11.01;75.76
80321;BME280;69633;47.066;15.450;2023-04-24T04:49:00;96513.72;;;11.03;75.45
80321;BME280;69633;47.066;15.450;2023-04-24T04:51:26;96515.84;;;11.17;75.36
80321;BME280;69633;47.066;15.450;2023-04-24T04:53:53;96522.81;;;11.29;74.19
80321;BME280;69633;47.066;15.450;2023-04-24T04:56:18;96523.53;;;11.26;74.44
80321;BME280;69633;47.066;15.450;2023-04-24T04:58:44;96516.16;;;11.38;74.31
80321;BME280;69633;47.066;15.450;2023-04-24T05:01:10;96520.41;;;11.43;74.11
80321;BME280;69633;47.066;15.450;2023-04-24T05:03:35;96518.50;;;11.43;73.91
80321;BME280;69633;47.066;15.450;2023-04-24T05:06:01;96527.28;;;11.47;75.05
80321;BME280;69633;47.066;15.450;2023-04-24T05:08:27;96529.59;;;11.49;74.75
80321;BME280;69633;47.066;15.450;2023-04-24T05:10:53;96524.16;;;11.42;74.34
80321;BME280;69633;47.066;15.450;2023-04-24T05:13:18;96525.66;;;11.39;75.10
80321;BME280;69633;47.066;15.450;2023-04-24T05:15:44;96521.03;;;11.36;74.59
80321;BME280;69633;47.066;15.450;2023-04-24T05:18:09;96527.75;;;11.27;75.26
80321;BME280;69633;47.066;15.450;2023-04-24T05:20:35;96527.56;;;11.39;74.92
80321;BME280;69633;47.066;15.450;2023-04-24T05:23:00;96520.31;;;11.36;74.64
80321;BME280;69633;47.066;15.450;2023-04-24T05:25:26;96522.63;;;11.41;74.66
80321;BME280;69633;47.066;15.450;2023-04-24T05:27:51;96516.50;;;11.37;74.88
80321;BME280;69633;47.066;15.450;2023-04-24T05:30:18;96514.50;;;11.30;75.46
80321;BME280;69633;47.066;15.450;2023-04-24T05:32:44;96509.97;;;11.31;76.21
80321;BME280;69633;47.066;15.450;2023-04-24T05:35:10;96509.69;;;11.36;75.77
80321;BME280;69633;47.066;15.450;2023-04-24T05:37:35;96510.88;;;11.42;75.95
80321;BME280;69633;47.066;15.450;2023-04-24T05:40:01;96516.72;;;11.51;75.87
80321;BME280;69633;47.066;15.450;2023-04-24T05:42:27;96519.13;;;11.63;75.20
80321;BME280;69633;47.066;15.450;2023-04-24T05:44:52;96531.56;;;11.82;74.97
80321;BME280;69633;47.066;15.450;2023-04-24T05:47:19;96522.69;;;12.00;74.21
80321;BME280;69633;47.066;15.450;2023-04-24T05:49:46;96526.72;;;12.21;73.85
80321;BME280;69633;47.066;15.450;2023-04-24T05:52:12;96532.78;;;12.18;73.77
80321;BME280;69633;47.066;15.450;2023-04-24T05:54:37;96522.25;;;12.28;73.94
80321;BME280;69633;47.066;15.450;2023-04-24T05:57:03;96524.63;;;12.37;73.66
80321;BME280;69633;47.066;15.450;2023-04-24T05:59:33;96522.97;;;12.62;72.89
80321;BME280;69633;47.066;15.450;2023-04-24T06:01:58;96527.25;;;12.70;72.30
80321;BME280;69633;47.066;15.450;2023-04-24T06:04:24;96524.19;;;12.72;72.12
80321;BME280;69633;47.066;15.450;2023-04-24T06:06:49;96527.88;;;12.97;71.86
80321;BME280;69633;47.066;15.450;2023-04-24T06:09:19;96526.59;;;13.28;70.67
80321;BME280;69633;47.066;15.450;2023-04-24T06:11:45;96533.28;;;13.62;69.42
80321;BME280;69633;47.066;15.450;2023-04-24T06:14:11;96532.66;;;13.86;67.99
80321;BME280;69633;47.066;15.450;2023-04-24T06:16:36;96538.09;;;14.08;67.50
80321;BME280;69633;47.066;15.450;2023-04-24T06:19:01;96535.06;;;14.13;67.02
80321;BME280;69633;47.066;15.450;2023-04-24T06:21:27;96532.03;;;14.18;66.87
80321;BME280;69633;47.066;15.450;2023-04-24T06:23:53;96530.59;;;14.34;66.70
80321;BME280;69633;47.066;15.450;2023-04-24T06:26:19;96530.63;;;14.59;65.98
80321;BME280;69633;47.066;15.450;2023-04-24T06:28:45;96531.47;;;14.81;65.70
80321;BME280;69633;47.066;15.450;2023-04-24T06:31:10;96536.81;;;15.13;64.67
80321;BME280;69633;47.066;15.450;2023-04-24T06:33:35;96533.38;;;15.51;62.97
80321;BME280;69633;47.066;15.450;2023-04-24T06:36:01;96530.63;;;15.79;61.80
80321;BME280;69633;47.066;15.450;2023-04-24T06:38:26;96533.69;;;15.85;61.98
80321;BME280;69633;47.066;15.450;2023-04-24T06:40:52;96537.53;;;15.77;62.00
80321;BME280;69633;47.066;15.450;2023-04-24T06:43:17;96532.16;;;15.80;61.61
80321;BME280;69633;47.066;15.450;2023-04-24T06:45:43;96533.69;;;15.81;62.17
80321;BME280;69633;47.066;15.450;2023-04-24T06:48:09;96540.25;;;15.56;62.33
80321;BME280;69633;47.066;15.450;2023-04-24T06:50:35;96531.38;;;15.83;62.32
80321;BME280;69633;47.066;15.450;2023-04-24T06:53:00;96541.34;;;15.79;61.81
80321;BME280;69633;47.066;15.450;2023-04-24T06:55:26;96542.06;;;15.90;61.51
80321;BME280;69633;47.066;15.450;2023-04-24T06:57:51;96537.81;;;16.11;61.48
80321;BME280;69633;47.066;15.450;2023-04-24T07:00:17;96530.91;;;16.13;61.47
80321;BME280;69633;47.066;15.450;2023-04-24T07:02:42;96530.13;;;16.16;61.42
80321;BME280;69633;47.066;15.450;2023-04-24T07:05:08;96538.19;;;16.06;62.00
80321;BME280;69633;47.066;15.450;2023-04-24T07:07:34;96544.72;;;16.08;62.34
80321;BME280;69633;47.066;15.450;2023-04-24T07:09:59;96547.09;;;15.74;62.47
80321;BME280;69633;47.066;15.450;2023-04-24T07:12:25;96554.38;;;15.49;63.59
80321;BME280;69633;47.066;15.450;2023-04-24T07:14:51;96561.25;;;15.43;63.75
80321;BME280;69633;47.066;15.450;2023-04-24T07:17:16;96557.44;;;15.40;64.20
80321;BME280;69633;47.066;15.450;2023-04-24T07:19:42;96555.50;;;15.27;65.02
80321;BME280;69633;47.066;15.450;2023-04-24T07:22:07;96570.78;;;14.87;67.58
80321;BME280;69633;47.066;15.450;2023-04-24T07:24:33;96572.28;;;14.81;67.44
80321;BME280;69633;47.066;15.450;2023-04-24T07:26:58;96584.06;;;14.66;68.24
80321;BME280;69633;47.066;15.450;2023-04-24T07:29:26;96576.41;;;14.47;69.51
80321;BME280;69633;47.066;15.450;2023-04-24T07:31:51;96588.19;;;14.39;69.50
80321;BME280;69633;47.066;15.450;2023-04-24T07:34:19;96582.81;;;14.32;69.53
80321;BME280;69633;47.066;15.450;2023-04-24T07:36:45;96584.69;;;14.24;69.30
80321;BME280;69633;47.066;15.450;2023-04-24T07:39:11;96586.94;;;14.19;69.87
80321;BME280;69633;47.066;15.450;2023-04-24T07:41:36;96592.69;;;14.21;69.93
80321;BME280;69633;47.066;15.450;2023-04-24T07:44:02;96593.06;;;14.23;70.17
80321;BME280;69633;47.066;15.450;2023-04-24T07:46:27;96605.25;;;14.24;71.21
80321;BME280;69633;47.066;15.450;2023-04-24T07:48:55;96606.03;;;14.21;71.62
80321;BME280;69633;47.066;15.450;2023-04-24T07:51:20;96602.97;;;14.26;71.76
80321;BME280;69633;47.066;15.450;2023-04-24T07:53:46;96595.72;;;14.23;71.31
80321;BME280;69633;47.066;15.450;2023-04-24T07:56:12;96601.41;;;14.18;72.08
80321;BME280;69633;47.066;15.450;2023-04-24T07:58:38;96592.22;;;14.04;72.25
80321;BME280;69633;47.066;15.450;2023-04-24T08:01:03;96599.75;;;13.92;73.03
80321;BME280;69633;47.066;15.450;2023-04-24T08:03:29;96599.72;;;13.88;72.84
80321;BME280;69633;47.066;15.450;2023-04-24T08:05:54;96609.31;;;14.00;73.32
80321;BME280;69633;47.066;15.450;2023-04-24T08:08:21;96613.16;;;14.06;73.84
80321;BME280;69633;47.066;15.450;2023-04-24T08:10:47;96612.81;;;14.08;73.57
80321;BME280;69633;47.066;15.450;2023-04-24T08:13:13;96619.72;;;14.16;72.87
80321;BME280;69633;47.066;15.450;2023-04-24T08:15:38;96617.34;;;14.03;73.84
80321;BME280;69633;47.066;15.450;2023-04-24T08:18:04;96620.78;;;14.04;73.95
80321;BME280;69633;47.066;15.450;2023-04-24T08:20:29;96625.03;;;14.12;73.22
80321;BME280;69633;47.066;15.450;2023-04-24T08:22:55;96621.97;;;14.14;72.49
80321;BME280;69633;47.066;15.450;2023-04-24T08:25:21;96622.72;;;14.11;73.53
80321;BME280;69633;47.066;15.450;2023-04-24T08:27:48;96635.66;;;14.01;72.03
80321;BME280;69633;47.066;15.450;2023-04-24T08:30:13;96623.75;;;13.92;72.04
80321;BME280;69633;47.066;15.450;2023-04-24T08:32:39;96630.94;;;13.84;73.22
80321;BME280;69633;47.066;15.450;2023-04-24T08:35:05;96632.34;;;13.64;73.93
80321;BME280;69633;47.066;15.450;2023-04-24T08:37:30;96637.72;;;13.71;73.97
80321;BME280;69633;47.066;15.450;2023-04-24T08:39:56;96635.91;;;13.82;74.73
80321;BME280;69633;47.066;15.450;2023-04-24T08:42:22;96637.72;;;13.71;74.78
80321;BME280;69633;47.066;15.450;2023-04-24T08:44:49;96641.91;;;13.72;74.82
80321;BME280;69633;47.066;15.450;2023-04-24T08:47:15;96648.47;;;13.82;74.57
80321;BME280;69633;47.066;15.450;2023-04-24T08:49:41;96650.88;;;13.97;74.68
80321;BME280;69633;47.066;15.450;2023-04-24T08:52:08;96650.19;;;14.11;74.55
80321;BME280;69633;47.066;15.450;2023-04-24T08:54:36;96653.16;;;14.02;74.50
80321;BME280;69633;47.066;15.450;2023-04-24T08:57:03;96653.50;;;13.90;75.76
80321;BME280;69633;47.066;15.450;2023-04-24T08:59:30;96655.47;;;14.00;75.89
80321;BME280;69633;47.066;15.450;2023-04-24T09:01:56;96658.41;;;13.88;75.60
80321;BME280;69633;47.066;15.450;2023-04-24T09:04:22;96660.69;;;13.86;74.02
80321;BME280;69633;47.066;15.450;2023-04-24T09:06:54;96667.81;;;13.68;74.72
80321;BME280;69633;47.066;15.450;2023-04-24T09:09:21;96661.72;;;13.68;74.63
80321;BME280;69633;47.066;15.450;2023-04-24T09:11:49;96659.16;;;13.85;73.88
80321;BME280;69633;47.066;15.450;2023-04-24T09:14:15;96661.81;;;13.82;72.62
80321;BME280;69633;47.066;15.450;2023-04-24T09:16:41;96669.69;;;13.64;74.11
80321;BME280;69633;47.066;15.450;2023-04-24T09:19:06;96674.03;;;13.39;74.22
80321;BME280;69633;47.066;15.450;2023-04-24T09:21:33;96676.72;;;13.42;74.80
80321;BME280;69633;47.066;15.450;2023-04-24T09:24:01;96667.13;;;13.31;74.95
80321;BME280;69633;47.066;15.450;2023-04-24T09:26:32;96667.38;;;13.19;74.91
80321;BME280;69633;47.066;15.450;2023-04-24T09:28:58;96668.06;;;13.12;75.45
80321;BME280;69633;47.066;15.450;2023-04-24T09:31:27;96670.97;;;13.00;76.29
80321;BME280;69633;47.066;15.450;2023-04-24T09:39:00;96662.13;;;12.92;76.82
80321;BME280;69633;47.066;15.450;2023-04-24T09:41:27;96653.13;;;13.04;76.63
80321;BME280;69633;47.066;15.450;2023-04-24T09:43:54;96654.03;;;13.15;73.35
80321;BME280;69633;47.066;15.450;2023-04-24T09:46:20;96654.22;;;13.36;72.46
80321;BME280;69633;47.066;15.450;2023-04-24T09:48:47;96656.72;;;13.63;71.76
80321;BME280;69633;47.066;15.450;2023-04-24T09:51:13;96651.50;;;13.80;70.81
80321;BME280;69633;47.066;15.450;2023-04-24T09:53:45;96648.53;;;13.92;69.85
80321;BME280;69633;47.066;15.450;2023-04-24T09:56:11;96650.97;;;14.19;68.94
80321;BME280;69633;47.066;15.450;2023-04-24T09:58:38;96640.56;;;14.65;68.30
80321;BME280;69633;47.066;15.450;2023-04-24T10:01:04;96641.31;;;14.65;68.85
80321;BME280;69633;47.066;15.450;2023-04-24T10:03:31;96650.59;;;15.03;67.04
80321;BME280;69633;47.066;15.450;2023-04-24T10:06:01;96634.59;;;15.24;66.25
80321;BME280;69633;47.066;15.450;2023-04-24T10:08:33;96638.78;;;15.22;66.10
80321;BME280;69633;47.066;15.450;2023-04-24T10:10:59;96639.50;;;14.97;67.43
80321;BME280;69633;47.066;15.450;2023-04-24T10:13:25;96637.59;;;14.94;65.88
80321;BME280;69633;47.066;15.450;2023-04-24T10:15:51;96639.84;;;14.96;66.73
80321;BME280;69633;47.066;15.450;2023-04-24T10:18:17;96644.47;;;14.95;66.28
80321;BME280;69633;47.066;15.450;2023-04-24T10:20:44;96639.06;;;14.81;67.80
80321;BME280;69633;47.066;15.450;2023-04-24T10:23:10;96634.56;;;15.07;67.23
80321;BME280;69633;47.066;15.450;2023-04-24T10:25:36;96629.22;;;15.24;66.73
80321;BME280;69633;47.066;15.450;2023-04-24T10:28:02;96635.34;;;15.28;67.34
80321;BME280;69633;47.066;15.450;2023-04-24T10:30:30;96629.59;;;15.33;66.36
80321;BME280;69633;47.066;15.450;2023-04-24T10:33:00;96626.19;;;15.33;65.80
80321;BME280;69633;47.066;15.450;2023-04-24T10:35:26;96634.56;;;15.10;67.35
80321;BME280;69633;47.066;15.450;2023-04-24T10:37:58;96624.66;;;15.39;67.62
80321;BME280;69633;47.066;15.450;2023-04-24T10:40:31;96625.44;;;15.32;66.23
80321;BME280;69633;47.066;15.450;2023-04-24T10:42:59;96632.25;;;15.12;68.41
80321;BME280;69633;47.066;15.450;2023-04-24T10:45:24;96624.66;;;15.39;66.99
80321;BME280;69633;47.066;15.450;2023-04-24T10:48:03;96632.31;;;15.86;65.78
80321;BME280;69633;47.066;15.450;2023-04-24T10:50:44;96630.03;;;15.74;64.33
80321;BME280;69633;47.066;15.450;2023-04-24T10:53:22;96624.66;;;15.92;65.47
80321;BME280;69633;47.066;15.450;2023-04-24T10:55:58;96634.81;;;16.64;62.67
80321;BME280;69633;47.066;15.450;2023-04-24T10:58:36;96626.81;;;16.43;63.49
80321;BME280;69633;47.066;15.450;2023-04-24T11:01:03;96625.00;;;16.15;63.87
80321;BME280;69633;47.066;15.450;2023-04-24T11:03:34;96622.97;;;16.48;63.91
80321;BME280;69633;47.066;15.450;2023-04-24T11:08:39;96614.63;;;16.21;63.55
80321;BME280;69633;47.066;15.450;2023-04-24T11:11:16;96616.22;;;16.04;62.53
80321;BME280;69633;47.066;15.450;2023-04-24T11:16:25;96620.22;;;16.65;61.83
80321;BME280;69633;47.066;15.450;2023-04-24T11:19:08;96621.41;;;16.50;61.47
80321;BME280;69633;47.066;15.450;2023-04-24T11:21:41;96612.31;;;17.10;60.17
80321;BME280;69633;47.066;15.450;2023-04-24T11:24:26;96609.03;;;17.43;59.26
80321;BME280;69633;47.066;15.450;2023-04-24T11:26:59;96614.88;;;17.31;58.68
80321;BME280;69633;47.066;15.450;2023-04-24T11:32:40;96618.78;;;16.43;60.21
80321;BME280;69633;47.066;15.450;2023-04-24T11:35:18;96617.59;;;16.48;58.22
80321;BME280;69633;47.066;15.450;2023-04-24T11:37:45;96623.75;;;16.44;58.96
80321;BME280;69633;47.066;15.450;2023-04-24T11:40:13;96626.72;;;16.71;59.33
80321;BME280;69633;47.066;15.450;2023-04-24T11:42:42;96619.56;;;16.40;57.50
80321;BME280;69633;47.066;15.450;2023-04-24T11:45:18;96613.78;;;16.59;57.15
80321;BME280;69633;47.066;15.450;2023-04-24T11:47:45;96618.50;;;17.03;57.19
80321;BME280;69633;47.066;15.450;2023-04-24T11:50:12;96621.81;;;17.25;54.97
80321;BME280;69633;47.066;15.450;2023-04-24T11:52:40;96621.34;;;17.37;56.17
80321;BME280;69633;47.066;15.450;2023-04-24T12:00:21;96623.22;;;17.40;56.56
80321;BME280;69633;47.066;15.450;2023-04-24T12:02:47;96610.97;;;17.43;56.78
80321;BME280;69633;47.066;15.450;2023-04-24T12:05:24;96610.06;;;17.60;55.22
80321;BME280;69633;47.066;15.450;2023-04-24T12:07:52;96612.34;;;17.65;53.72
80321;BME280;69633;47.066;15.450;2023-04-24T12:10:22;96619.22;;;17.69;54.30
80321;BME280;69633;47.066;15.450;2023-04-24T12:12:49;96611.53;;;17.68;54.22
80321;BME280;69633;47.066;15.450;2023-04-24T12:15:17;96617.81;;;17.51;55.15
80321;BME280;69633;47.066;15.450;2023-04-24T12:17:43;96615.94;;;17.40;55.69
80321;BME280;69633;47.066;15.450;2023-04-24T12:20:10;96622.53;;;17.29;57.09
80321;BME280;69633;47.066;15.450;2023-04-24T12:22:55;96618.44;;;17.14;57.79
80321;BME280;69633;47.066;15.450;2023-04-24T12:25:23;96623.38;;;17.19;57.40
80321;BME280;69633;47.066;15.450;2023-04-24T12:28:09;96622.47;;;17.43;56.28
80321;BME280;69633;47.066;15.450;2023-04-24T12:30:43;96623.69;;;17.83;55.27
80321;BME280;69633;47.066;15.450;2023-04-24T12:33:10;96620.09;;;17.97;53.94
80321;BME280;69633;47.066;15.450;2023-04-24T12:35:36;96616.56;;;18.07;53.52
80321;BME280;69633;47.066;15.450;2023-04-24T12:38:15;96619.94;;;18.48;52.53
80321;BME280;69633;47.066;15.450;2023-04-24T12:40:42;96616.00;;;18.56;51.87
80321;BME280;69633;47.066;15.450;2023-04-24T12:43:20;96613.94;;;18.67;52.26
80321;BME280;69633;47.066;15.450;2023-04-24T12:45:48;96610.47;;;18.70;52.70
80321;BME280;69633;47.066;15.450;2023-04-24T12:48:14;96600.03;;;18.42;52.70
80321;BME280;69633;47.066;15.450;2023-04-24T12:50:39;96594.44;;;18.60;52.21
80321;BME280;69633;47.066;15.450;2023-04-24T12:53:06;96599.81;;;19.17;50.83
80321;BME280;69633;47.066;15.450;2023-04-24T12:55:31;96593.00;;;19.09;49.91
80321;BME280;69633;47.066;15.450;2023-04-24T12:57:57;96586.91;;;19.05;50.06
80321;BME280;69633;47.066;15.450;2023-04-24T13:00:23;96588.56;;;18.99;50.80
80321;BME280;69633;47.066;15.450;2023-04-24T13:02:49;96586.31;;;18.94;50.27
80321;BME280;69633;47.066;15.450;2023-04-24T13:05:14;96591.41;;;18.88;50.84
80321;BME280;69633;47.066;15.450;2023-04-24T13:07:40;96580.38;;;18.79;50.19